Time;durP1;ratioP1;P1;durP2;ratioP2;P2;SDS_P1;SDS_P2;PMS_P1;PMS_P2;Temp;Humidity;BMP_temperature;BMP_pressure;BME280_temperature;BME280_humidity;BME280_pressure;Samples;Min_cycle;Max_cycle;Signal;HPM_P1;HPM_P2
2021/12/11 00:01:44;;;;;;;22.38;10.80;;;-0.80;99.90;;;;;;5057008;28;20115;-70
2021/12/11 00:04:14;;;;;;;22.23;11.38;;;-0.90;99.90;;;;;;5054836;28;20060;-70
2021/12/11 00:06:47;;;;;;;20.98;10.93;;;-1.00;99.90;;;;;;5040043;28;20064;-71
2021/12/11 00:09:18;;;;;;;21.65;11.43;;;-1.20;99.90;;;;;;5056418;28;20045;-70
2021/12/11 00:11:48;;;;;;;21.92;10.73;;;-0.80;99.90;;;;;;5038562;28;20045;-70
2021/12/11 00:14:14;;;;;;;21.83;11.88;;;-1.30;99.90;;;;;;5041952;28;20049;-70
2021/12/11 00:16:41;;;;;;;21.25;11.13;;;-0.90;99.90;;;;;;5070567;28;20057;-70
2021/12/11 00:19:15;;;;;;;20.33;9.73;;;-1.20;99.90;;;;;;5073533;28;20053;-70
2021/12/11 00:21:42;;;;;;;22.95;11.43;;;-1.20;99.90;;;;;;5056982;28;20041;-70
2021/12/11 00:24:17;;;;;;;25.60;12.18;;;-0.70;99.90;;;;;;5070859;28;20072;-70
2021/12/11 00:26:50;;;;;;;22.70;11.98;;;-1.10;99.90;;;;;;5041746;28;20045;-70
2021/12/11 00:29:22;;;;;;;21.20;11.00;;;-1.10;99.90;;;;;;5020769;28;20041;-70
2021/12/11 00:31:52;;;;;;;21.83;11.20;;;-1.10;99.90;;;;;;5056431;28;20137;-70
2021/12/11 00:34:21;;;;;;;25.75;11.90;;;-0.80;99.90;;;;;;5072014;28;20045;-70
2021/12/11 00:37:14;;;;;;;21.73;11.55;;;-1.10;99.90;;;;;;5038252;28;20065;-70
2021/12/11 00:40:09;;;;;;;21.98;10.70;;;-1.10;99.90;;;;;;5037402;28;20120;-70
2021/12/11 00:42:36;;;;;;;18.17;10.20;;;-1.10;99.90;;;;;;5032088;28;20061;-70
2021/12/11 00:45:17;;;;;;;23.88;11.88;;;-1.20;99.90;;;;;;5038852;28;20045;-70
2021/12/11 00:47:50;;;;;;;20.85;10.77;;;-1.30;99.90;;;;;;5056188;28;20107;-70
2021/12/11 00:50:18;;;;;;;23.23;11.82;;;-1.30;99.90;;;;;;5038010;28;20049;-70
2021/12/11 00:52:54;;;;;;;22.65;12.52;;;-1.30;99.90;;;;;;5039508;28;20041;-70
2021/12/11 00:55:22;;;;;;;;;;;-1.20;99.90;;;;;;5021342;28;20492;-70
2021/12/11 00:58:00;;;;;;;25.95;13.77;;;-1.20;99.90;;;;;;5039248;28;20016;-70
2021/12/11 01:00:26;;;;;;;22.15;12.45;;;-1.30;99.90;;;;;;5072101;28;20052;-70
2021/12/11 01:02:56;;;;;;;21.75;11.90;;;-1.20;99.90;;;;;;5019996;28;20162;-70
2021/12/11 01:05:23;;;;;;;25.67;12.32;;;-1.30;99.90;;;;;;5040474;28;20494;-70
2021/12/11 01:07:49;;;;;;;25.17;12.75;;;-1.30;99.90;;;;;;5036056;28;20064;-70
2021/12/11 01:10:25;;;;;;;27.73;13.75;;;-1.30;99.90;;;;;;5072690;28;20055;-70
2021/12/11 01:13:02;;;;;;;27.63;13.68;;;-1.30;99.90;;;;;;5071181;28;20054;-69
2021/12/11 01:15:46;;;;;;;26.30;13.30;;;-1.30;99.90;;;;;;5037430;28;20049;-70
2021/12/11 01:21:03;;;;;;;21.73;12.93;;;-2.60;99.90;;;;;;5035970;28;20060;-70
2021/12/11 01:26:02;;;;;;;25.42;12.18;;;-1.30;99.90;;;;;;5037948;28;20049;-69
2021/12/11 01:28:28;;;;;;;24.23;12.40;;;-1.30;99.90;;;;;;5070072;28;20441;-70
2021/12/11 01:30:55;;;;;;;24.38;13.85;;;-1.30;99.90;;;;;;5071923;28;20405;-70
2021/12/11 01:33:22;;;;;;;25.25;12.70;;;-1.30;99.90;;;;;;5052699;28;20109;-70
2021/12/11 01:35:47;;;;;;;24.90;12.95;;;-1.40;99.90;;;;;;5022419;28;20076;-70
2021/12/11 01:38:17;;;;;;;29.42;13.93;;;-1.40;99.90;;;;;;5052502;28;20056;-70
2021/12/11 01:40:47;;;;;;;22.92;12.50;;;-1.40;99.90;;;;;;5071670;28;20049;-70
2021/12/11 01:43:14;;;;;;;20.83;11.60;;;-1.40;99.90;;;;;;5055347;28;20429;-70
2021/12/11 01:45:45;;;;;;;21.17;11.25;;;-1.40;99.90;;;;;;5069268;28;20556;-70
2021/12/11 01:48:16;;;;;;;19.98;10.88;;;-1.50;99.90;;;;;;5038708;28;20659;-70
2021/12/11 01:50:47;;;;;;;21.67;11.13;;;-1.60;99.90;;;;;;5068532;28;20096;-73
2021/12/11 01:53:22;;;;;;;24.67;11.88;;;-1.60;99.90;;;;;;5071953;28;20076;-72
2021/12/11 01:56:15;;;;;;;23.08;11.05;;;-1.70;99.90;;;;;;5070494;28;20056;-72
2021/12/11 01:58:50;;;;;;;23.52;11.45;;;-2.00;99.90;;;;;;5068578;28;20122;-72
2021/12/11 02:01:28;;;;;;;21.85;11.57;;;-1.80;99.90;;;;;;5037962;28;20037;-72
2021/12/11 02:03:55;;;;;;;17.85;10.77;;;-1.80;99.90;;;;;;5068451;28;20037;-72
2021/12/11 02:06:28;;;;;;;19.73;11.05;;;-1.70;99.90;;;;;;5037597;28;20502;-73
2021/12/11 02:08:53;;;;;;;24.63;12.32;;;-1.80;99.90;;;;;;5038041;28;20049;-73
2021/12/11 02:11:24;;;;;;;19.75;10.80;;;-1.80;99.90;;;;;;5035818;28;20378;-72
2021/12/11 02:13:57;;;;;;;24.88;12.18;;;-1.80;99.90;;;;;;5039856;28;20053;-72
2021/12/11 02:16:45;;;;;;;20.90;11.23;;;-1.80;99.90;;;;;;5068152;28;20060;-73
2021/12/11 02:19:32;;;;;;;22.67;10.95;;;-1.90;99.90;;;;;;5037784;28;20056;-72
2021/12/11 02:22:09;;;;;;;23.55;11.15;;;-1.90;99.90;;;;;;5071578;28;20056;-72
2021/12/11 02:24:43;;;;;;;17.00;10.60;;;-2.00;99.90;;;;;;5068073;28;20045;-73
2021/12/11 02:27:18;;;;;;;19.88;10.93;;;-2.10;99.90;;;;;;5038064;28;20049;-73
2021/12/11 02:29:53;;;;;;;23.27;11.33;;;-2.10;99.90;;;;;;5034854;28;20116;-72
2021/12/11 02:32:39;;;;;;;24.77;11.70;;;-2.10;99.90;;;;;;5070057;28;20486;-72
2021/12/11 02:35:08;;;;;;;21.00;10.87;;;-2.10;99.90;;;;;;5037909;28;20041;-72
2021/12/11 02:37:44;;;;;;;23.02;11.95;;;-2.10;99.90;;;;;;5034255;28;20045;-73
2021/12/11 02:40:30;;;;;;;24.05;11.40;;;-2.10;99.90;;;;;;5037425;28;20097;-73
2021/12/11 02:43:28;;;;;;;21.42;11.10;;;-2.00;99.90;;;;;;5036166;28;20075;-72
2021/12/11 02:46:14;;;;;;;20.27;11.10;;;-2.00;99.90;;;;;;5023752;28;20050;-72
2021/12/11 02:48:48;;;;;;;23.52;12.00;;;-2.00;99.90;;;;;;5037522;28;20079;-72
2021/12/11 02:51:30;;;;;;;19.45;10.57;;;-2.00;99.90;;;;;;5035780;28;20398;-70
2021/12/11 02:54:00;;;;;;;23.00;10.82;;;-2.00;99.90;;;;;;5037200;28;20041;-73
2021/12/11 02:56:26;;;;;;;20.08;11.25;;;-2.10;99.90;;;;;;5038887;28;20084;-72
2021/12/11 02:58:57;;;;;;;18.70;10.52;;;-1.70;99.90;;;;;;5034214;28;20488;-72
2021/12/11 03:01:35;;;;;;;20.67;11.40;;;-2.30;99.90;;;;;;5038508;28;20045;-72
2021/12/11 03:04:16;;;;;;;24.83;12.00;;;-2.40;99.90;;;;;;5034829;28;20057;-72
2021/12/11 03:06:46;;;;;;;22.00;11.40;;;-2.50;99.90;;;;;;5037212;28;20065;-71
2021/12/11 03:09:14;;;;;;;24.40;12.18;;;-2.50;99.90;;;;;;5037380;28;20053;-72
2021/12/11 03:11:40;;;;;;;25.05;13.38;;;-2.50;99.90;;;;;;5067489;28;20041;-72
2021/12/11 03:14:12;;;;;;;26.10;12.38;;;-2.50;99.90;;;;;;5037607;28;20060;-72
2021/12/11 03:16:40;;;;;;;25.42;12.20;;;-2.50;99.90;;;;;;5034038;28;20045;-72
2021/12/11 03:19:09;;;;;;;22.83;11.95;;;-2.50;99.90;;;;;;5069922;28;20088;-72
2021/12/11 03:21:36;;;;;;;23.77;11.52;;;-2.50;99.90;;;;;;5036928;28;20508;-72
2021/12/11 03:24:04;;;;;;;27.67;11.68;;;-2.50;99.90;;;;;;5036561;28;20110;-73
2021/12/11 03:26:30;;;;;;;24.83;12.35;;;-2.40;99.90;;;;;;5037048;28;20057;-74
2021/12/11 03:28:56;;;;;;;26.88;13.73;;;-2.40;99.90;;;;;;5068327;28;20037;-73
2021/12/11 03:31:22;;;;;;;28.08;13.07;;;-2.40;99.90;;;;;;5070532;28;20037;-73
2021/12/11 03:33:52;;;;;;;25.20;14.55;;;-2.40;99.90;;;;;;5034308;28;20064;-73
2021/12/11 03:36:20;;;;;;;27.40;14.63;;;-1.90;99.90;;;;;;5038553;28;20049;-73
2021/12/11 03:38:56;;;;;;;27.73;13.77;;;-2.20;99.90;;;;;;5036087;28;20049;-73
2021/12/11 03:41:24;;;;;;;25.05;12.95;;;-2.00;99.90;;;;;;5021082;28;20127;-73
2021/12/11 03:43:51;;;;;;;21.13;13.50;;;-2.10;99.90;;;;;;5024368;28;20107;-73
2021/12/11 03:46:18;;;;;;;23.02;12.70;;;-2.10;99.90;;;;;;5037743;28;20056;-73
2021/12/11 03:48:53;;;;;;;24.38;13.13;;;-2.00;99.90;;;;;;5041245;28;20132;-73
2021/12/11 03:51:23;;;;;;;26.52;12.35;;;-2.00;99.90;;;;;;5039006;28;20101;-73
2021/12/11 03:53:50;;;;;;;22.15;11.82;;;-2.00;99.90;;;;;;5039511;28;20053;-73
2021/12/11 03:56:17;;;;;;;25.25;12.77;;;-2.10;99.90;;;;;;5073562;28;20057;-73
2021/12/11 03:58:49;;;;;;;28.73;14.68;;;-2.10;99.90;;;;;;5070468;28;20062;-73
2021/12/11 04:01:25;;;;;;;28.35;15.55;;;-1.50;99.90;;;;;;5039951;28;20080;-73
2021/12/11 04:03:54;;;;;;;33.65;15.13;;;-1.90;99.90;;;;;;5071238;28;20057;-73
2021/12/11 04:06:21;;;;;;;38.50;16.95;;;-1.40;99.90;;;;;;5073204;28;20072;-73
2021/12/11 04:08:48;;;;;;;33.33;15.70;;;-1.60;99.90;;;;;;5023034;28;20055;-73
2021/12/11 04:11:25;;;;;;;33.53;16.40;;;-1.50;99.90;;;;;;5038433;28;20510;-73
2021/12/11 04:13:55;;;;;;;40.13;16.23;;;-1.40;99.90;;;;;;5041932;28;20449;-73
2021/12/11 04:16:21;;;;;;;34.17;16.85;;;-1.30;99.90;;;;;;5070446;28;20072;-73
2021/12/11 04:18:48;;;;;;;35.53;17.48;;;-1.00;99.90;;;;;;5073783;28;20049;-73
2021/12/11 04:21:14;;;;;;;39.03;17.85;;;-1.30;99.90;;;;;;5038300;28;20041;-73
2021/12/11 04:23:41;;;;;;;29.67;15.77;;;-1.30;99.90;;;;;;5055747;28;20052;-73
2021/12/11 04:26:07;;;;;;;31.70;16.85;;;-1.00;99.90;;;;;;5039770;28;20059;-73
2021/12/11 04:28:36;;;;;;;31.80;15.95;;;-1.20;99.90;;;;;;5038587;28;20042;-73
2021/12/11 04:31:08;;;;;;;28.83;15.93;;;-0.50;99.90;;;;;;5039668;28;20050;-73
2021/12/11 04:33:38;;;;;;;33.88;16.13;;;-1.20;99.90;;;;;;5069648;28;20497;-73
2021/12/11 04:36:09;;;;;;;30.65;14.35;;;-1.20;99.90;;;;;;5072295;28;20051;-73
2021/12/11 04:38:35;;;;;;;26.08;13.98;;;-1.30;99.90;;;;;;5037886;28;20061;-73
2021/12/11 04:41:02;;;;;;;30.08;14.25;;;-1.40;99.90;;;;;;5036964;28;20054;-73
2021/12/11 04:43:28;;;;;;;29.40;14.23;;;-1.50;99.90;;;;;;5072198;28;20105;-73
2021/12/11 04:46:06;;;;;;;30.60;16.38;;;-1.60;99.90;;;;;;5036881;28;20556;-73
2021/12/11 04:48:54;;;;;;;38.42;16.85;;;-1.10;99.90;;;;;;5073288;28;20099;-73
2021/12/11 04:51:27;;;;;;;31.02;16.02;;;-1.70;99.90;;;;;;5070677;28;20128;-73
2021/12/11 05:07:22;;;;;;;30.40;15.80;;;-1.70;99.90;;;;;;5036828;28;20488;-72
2021/12/11 05:10:20;;;;;;;29.25;15.15;;;-1.70;99.90;;;;;;5041003;28;20049;-72
2021/12/11 05:12:50;;;;;;;28.45;15.40;;;-1.70;99.90;;;;;;5038631;28;20072;-72
2021/12/11 05:15:38;;;;;;;34.60;16.55;;;-1.70;99.90;;;;;;5071284;28;20453;-72
2021/12/11 05:18:09;;;;;;;32.67;16.33;;;-1.70;99.90;;;;;;5038843;28;20061;-72
2021/12/11 05:20:35;;;;;;;30.02;16.02;;;-1.60;99.90;;;;;;5036040;28;20048;-72
2021/12/11 05:23:01;;;;;;;31.17;14.88;;;-1.60;99.90;;;;;;5039166;28;20049;-72
2021/12/11 05:25:28;;;;;;;29.80;16.20;;;-1.60;99.90;;;;;;5069945;28;20042;-72
2021/12/11 05:27:54;;;;;;;33.35;16.58;;;-1.70;99.90;;;;;;5054743;28;20045;-72
2021/12/11 05:30:28;;;;;;;28.95;16.00;;;-1.70;99.90;;;;;;5071855;28;20105;-72
2021/12/11 05:32:56;;;;;;;33.90;16.23;;;-1.70;99.90;;;;;;5052436;28;20053;-72
2021/12/11 05:35:22;;;;;;;30.25;15.63;;;-1.70;99.90;;;;;;5040299;28;20057;-72
2021/12/11 05:37:48;;;;;;;34.28;16.23;;;-1.80;99.90;;;;;;5052641;28;20142;-72
2021/12/11 05:40:18;;;;;;;36.72;17.70;;;-1.80;99.90;;;;;;5039179;28;20046;-72
2021/12/11 05:42:44;;;;;;;34.58;17.40;;;-1.80;99.90;;;;;;5053859;28;20057;-72
2021/12/11 05:45:10;;;;;;;38.20;17.98;;;-1.80;99.90;;;;;;5070795;28;20084;-72
2021/12/11 05:47:36;;;;;;;38.08;17.30;;;-1.80;99.90;;;;;;5038482;28;20109;-72
2021/12/11 05:50:06;;;;;;;32.05;16.42;;;-1.80;99.90;;;;;;5036447;28;20053;-72
2021/12/11 05:52:32;;;;;;;29.02;15.82;;;-1.80;99.90;;;;;;5021895;28;20061;-72
2021/12/11 05:54:58;;;;;;;31.80;16.15;;;-1.70;99.90;;;;;;5069146;28;20053;-72
2021/12/11 05:57:26;;;;;;;29.55;15.27;;;-1.70;99.90;;;;;;5038444;28;20101;-72
2021/12/11 05:59:52;;;;;;;29.15;15.90;;;-1.70;99.90;;;;;;5038046;28;20643;-72
2021/12/11 06:02:27;;;;;;;30.38;15.35;;;-1.70;99.90;;;;;;5036277;28;20053;-72
2021/12/11 06:04:56;;;;;;;28.35;14.57;;;-1.70;99.90;;;;;;5038198;28;20060;-72
2021/12/11 06:07:26;;;;;;;36.90;16.48;;;-1.80;99.90;;;;;;5068444;28;20065;-72
2021/12/11 06:10:03;;;;;;;28.67;14.88;;;-1.80;99.90;;;;;;5038267;28;20057;-73
2021/12/11 06:12:30;;;;;;;29.67;15.60;;;-1.80;99.90;;;;;;5069017;28;20045;-72
2021/12/11 06:14:57;;;;;;;28.65;15.38;;;-1.80;99.90;;;;;;5037770;28;20053;-72
2021/12/11 06:17:26;;;;;;;32.88;15.35;;;-1.80;99.90;;;;;;5071022;28;20085;-72
2021/12/11 06:19:54;;;;;;;36.75;16.17;;;-1.80;99.90;;;;;;5036758;28;20050;-71
2021/12/11 06:22:24;;;;;;;31.52;15.95;;;-1.80;99.90;;;;;;5038109;28;20049;-71
2021/12/11 06:24:50;;;;;;;33.78;16.15;;;-1.80;99.90;;;;;;5036325;28;20053;-72
2021/12/11 06:27:17;;;;;;;27.42;14.93;;;-1.90;99.90;;;;;;5070863;28;20059;-72
2021/12/11 06:29:43;;;;;;;30.15;14.73;;;-1.90;99.90;;;;;;5035796;28;20512;-72
2021/12/11 06:32:09;;;;;;;27.25;15.00;;;-1.90;99.90;;;;;;5036289;28;20041;-72
2021/12/11 06:34:36;;;;;;;29.80;15.15;;;-2.00;99.90;;;;;;5070861;28;20045;-72
2021/12/11 06:37:05;;;;;;;27.88;14.55;;;-1.90;99.90;;;;;;5068708;28;20053;-72
2021/12/11 06:39:31;;;;;;;30.80;15.57;;;-1.90;99.90;;;;;;5037959;28;20075;-72
2021/12/11 06:42:00;;;;;;;29.83;15.68;;;-1.90;99.90;;;;;;5068165;28;20053;-71
2021/12/11 06:44:28;;;;;;;32.90;15.35;;;-2.00;99.90;;;;;;5037723;28;20049;-71
2021/12/11 06:46:59;;;;;;;28.60;15.05;;;-1.80;99.90;;;;;;5037148;28;20445;-71
2021/12/11 06:49:28;;;;;;;27.70;15.55;;;-2.00;99.90;;;;;;5036283;28;20405;-72
2021/12/11 06:51:53;;;;;;;28.08;14.68;;;-2.20;99.90;;;;;;5037584;28;20073;-72
2021/12/11 06:54:20;;;;;;;29.15;14.68;;;-2.20;99.90;;;;;;5034612;28;20160;-72
2021/12/11 06:56:46;;;;;;;27.50;14.25;;;-2.20;99.90;;;;;;5037745;28;20034;-71
2021/12/11 06:59:12;;;;;;;32.67;15.25;;;-2.20;99.90;;;;;;5035022;28;20383;-71
2021/12/11 07:01:39;;;;;;;28.85;15.02;;;-2.10;99.90;;;;;;5070758;28;20551;-72
2021/12/11 07:04:07;;;;;;;29.35;14.18;;;-2.20;99.90;;;;;;5068523;28;20079;-71
2021/12/11 07:06:35;;;;;;;29.52;14.75;;;-2.30;99.90;;;;;;5069010;28;20053;-71
2021/12/11 07:09:04;;;;;;;30.27;14.98;;;-2.50;99.90;;;;;;5037243;28;20084;-71
2021/12/11 07:11:32;;;;;;;28.58;13.88;;;-2.50;99.90;;;;;;5017486;28;20389;-71
2021/12/11 07:13:57;;;;;;;28.67;14.80;;;-2.50;99.90;;;;;;5039052;28;20424;-71
2021/12/11 07:16:24;;;;;;;26.92;13.90;;;-2.50;99.90;;;;;;5070169;28;20068;-71
2021/12/11 07:18:50;;;;;;;26.45;13.57;;;-2.50;99.90;;;;;;5041732;28;20060;-71
2021/12/11 07:21:16;;;;;;;33.42;16.30;;;-2.50;99.90;;;;;;5072775;28;20111;-71
2021/12/11 07:23:47;;;;;;;30.52;15.35;;;-2.30;99.90;;;;;;5073278;28;20053;-71
2021/12/11 07:26:22;;;;;;;28.65;15.40;;;-2.40;99.90;;;;;;5042687;28;20033;-71
2021/12/11 07:28:52;;;;;;;29.88;14.90;;;-2.40;99.90;;;;;;5038323;28;20053;-71
2021/12/11 07:31:19;;;;;;;28.00;15.45;;;-2.40;99.90;;;;;;5074283;28;20045;-71
2021/12/11 07:33:45;;;;;;;31.55;15.65;;;-2.40;99.90;;;;;;5071885;28;20073;-71
2021/12/11 07:36:11;;;;;;;25.60;14.77;;;-2.40;99.90;;;;;;5073709;28;20097;-71
2021/12/11 07:38:37;;;;;;;33.58;15.75;;;-2.30;99.90;;;;;;5056473;28;20049;-71
2021/12/11 07:41:07;;;;;;;32.15;16.08;;;-2.20;99.90;;;;;;5022307;28;20048;-71
2021/12/11 07:43:34;;;;;;;34.30;16.33;;;-2.20;99.90;;;;;;5041845;28;20049;-70
2021/12/11 07:46:00;;;;;;;30.60;16.95;;;-2.30;99.90;;;;;;5037364;28;20089;-71
2021/12/11 07:48:26;;;;;;;36.92;20.77;;;-2.30;99.90;;;;;;5074267;28;20088;-71
2021/12/11 07:50:52;;;;;;;37.05;17.85;;;-2.30;99.90;;;;;;5071362;28;20053;-71
2021/12/11 07:53:19;;;;;;;31.08;17.10;;;-1.70;99.90;;;;;;5040444;28;20128;-71
2021/12/11 07:55:45;;;;;;;31.25;14.88;;;-2.40;99.90;;;;;;5041129;28;20399;-71
2021/12/11 07:58:11;;;;;;;29.45;15.32;;;-2.40;99.90;;;;;;5071783;28;20080;-71
2021/12/11 08:00:40;;;;;;;29.83;14.52;;;-2.40;99.90;;;;;;5041741;28;20056;-71
2021/12/11 08:03:07;;;;;;;30.60;15.32;;;-2.40;99.90;;;;;;5037346;28;20053;-71
2021/12/11 08:05:34;;;;;;;30.33;15.40;;;-2.50;99.90;;;;;;5040667;28;20128;-71
2021/12/11 08:08:02;;;;;;;30.73;16.35;;;-2.50;99.90;;;;;;5070822;28;20049;-71
2021/12/11 08:10:30;;;;;;;33.70;16.15;;;-2.50;99.90;;;;;;5041364;28;20120;-71
2021/12/11 08:12:57;;;;;;;36.53;17.05;;;-2.40;99.90;;;;;;5039818;28;20053;-71
2021/12/11 08:15:23;;;;;;;30.92;16.15;;;-2.40;99.90;;;;;;5021328;28;20060;-71
2021/12/11 08:17:54;;;;;;;31.05;15.70;;;-2.40;99.90;;;;;;5057164;28;20057;-71
2021/12/11 08:20:22;;;;;;;32.85;17.38;;;-2.50;99.90;;;;;;5070122;28;20049;-71
2021/12/11 08:22:50;;;;;;;40.25;19.05;;;-2.60;99.90;;;;;;5073516;28;20051;-71
2021/12/11 08:25:18;;;;;;;36.40;18.80;;;-2.20;99.90;;;;;;5071228;28;20096;-71
2021/12/11 08:27:44;;;;;;;40.17;19.27;;;-2.10;99.90;;;;;;5040563;28;20046;-71
2021/12/11 08:30:10;;;;;;;39.60;19.00;;;-2.10;99.90;;;;;;5038907;28;20176;-71
2021/12/11 08:32:36;;;;;;;39.33;18.70;;;-1.90;99.90;;;;;;5038710;28;20046;-71
2021/12/11 08:35:05;;;;;;;39.78;19.15;;;-1.80;99.90;;;;;;5073395;28;20053;-71
2021/12/11 08:37:30;;;;;;;37.88;20.65;;;-1.70;99.90;;;;;;5070819;28;20048;-71
2021/12/11 08:39:56;;;;;;;39.58;19.52;;;-1.60;99.90;;;;;;5041546;28;20513;-72
2021/12/11 08:42:25;;;;;;;41.05;20.75;;;-1.50;99.90;;;;;;5037140;28;20057;-71
2021/12/11 08:44:59;;;;;;;36.67;18.23;;;-1.50;99.90;;;;;;5072464;28;20049;-71
2021/12/11 08:47:26;;;;;;;38.72;18.90;;;-1.40;99.90;;;;;;5039751;28;20050;-71
2021/12/11 08:49:54;;;;;;;42.83;20.20;;;-1.40;99.90;;;;;;5070291;28;20816;-72
2021/12/11 08:52:28;;;;;;;37.65;20.05;;;-1.30;99.90;;;;;;5073389;28;20458;-72
2021/12/11 08:54:56;;;;;;;40.63;19.85;;;-1.20;99.90;;;;;;5069811;28;20056;-72
2021/12/11 08:57:26;;;;;;;42.90;18.92;;;-1.20;99.90;;;;;;5072809;28;20080;-72
2021/12/11 08:59:56;;;;;;;39.00;20.58;;;-0.70;99.90;;;;;;5037593;28;20053;-73
2021/12/11 09:02:57;;;;;;;40.90;20.23;;;-1.00;99.90;;;;;;5030570;28;20109;-73
2021/12/11 09:05:45;;;;;;;42.53;20.05;;;-1.00;99.90;;;;;;5038494;28;20414;-72
2021/12/11 09:08:14;;;;;;;39.83;19.65;;;-0.90;99.90;;;;;;5036452;28;20142;-74
2021/12/11 09:10:49;;;;;;;46.42;22.15;;;-0.80;99.90;;;;;;5070904;28;20049;-74
2021/12/11 09:13:20;;;;;;;46.58;22.33;;;0.20;99.90;;;;;;5038890;28;20072;-74
2021/12/11 09:16:00;;;;;;;47.70;22.10;;;-0.70;99.90;;;;;;5035913;28;20052;-74
2021/12/11 09:18:32;;;;;;;43.35;22.20;;;-0.70;99.90;;;;;;5039043;28;20049;-74
2021/12/11 09:21:01;;;;;;;40.95;21.63;;;-0.60;99.90;;;;;;5036569;28;20053;-74
2021/12/11 09:23:44;;;;;;;44.08;21.20;;;-0.50;99.90;;;;;;5039367;28;20060;-74
2021/12/11 09:26:24;;;;;;;41.83;20.98;;;-0.50;99.90;;;;;;5071974;28;20058;-74
2021/12/11 09:29:07;;;;;;;40.97;20.27;;;-0.70;99.90;;;;;;5035827;28;20049;-74
2021/12/11 09:31:57;;;;;;;48.40;22.95;;;-0.50;99.90;;;;;;5037773;28;20048;-74
2021/12/11 09:34:27;;;;;;;41.33;21.60;;;-0.40;99.90;;;;;;5037433;28;20041;-74
2021/12/11 09:36:57;;;;;;;41.67;21.80;;;-0.20;99.90;;;;;;5068819;28;20041;-73
2021/12/11 09:39:37;;;;;;;38.17;19.48;;;-0.30;99.90;;;;;;5038707;28;20044;-74
2021/12/11 09:42:02;;;;;;;40.78;19.40;;;-0.20;99.90;;;;;;5035618;28;20061;-73
2021/12/11 09:44:37;;;;;;;42.13;21.92;;;-0.40;99.90;;;;;;5038050;28;20045;-74
2021/12/11 09:47:12;;;;;;;42.03;21.88;;;0.30;99.90;;;;;;5036877;28;20084;-73
2021/12/11 09:49:42;;;;;;;38.53;19.63;;;-0.10;99.90;;;;;;5019931;28;20056;-74
2021/12/11 09:52:23;;;;;;;37.65;20.50;;;0.00;99.90;;;;;;5071370;28;20049;-73
2021/12/11 09:54:54;;;;;;;40.75;20.35;;;0.00;99.90;;;;;;5067785;28;20112;-73
2021/12/11 09:57:24;;;;;;;38.38;18.33;;;0.10;99.90;;;;;;5021728;28;20049;-73
2021/12/11 09:59:52;;;;;;;41.95;19.85;;;0.20;99.90;;;;;;5070428;28;20466;-72
2021/12/11 10:02:24;;;;;;;39.55;20.50;;;0.60;99.90;;;;;;5068694;28;20531;-73
2021/12/11 10:04:58;;;;;;;34.67;18.65;;;0.50;99.90;;;;;;5071088;28;20057;-73
2021/12/11 10:07:31;;;;;;;41.67;19.10;;;0.80;99.90;;;;;;5036212;28;20092;-73
2021/12/11 10:10:11;;;;;;;33.85;17.50;;;1.00;99.90;;;;;;5071342;28;20128;-73
2021/12/11 10:12:42;;;;;;;37.67;18.85;;;1.20;99.90;;;;;;5036421;28;20042;-73
2021/12/11 10:15:17;;;;;;;33.45;17.42;;;1.50;99.90;;;;;;5019349;28;20033;-73
2021/12/11 10:18:06;;;;;;;36.80;17.42;;;1.70;99.90;;;;;;5039021;28;20438;-73
2021/12/11 10:20:51;;;;;;;34.95;18.83;;;2.00;99.90;;;;;;5034941;28;20132;-74
2021/12/11 10:23:22;;;;;;;34.08;16.30;;;2.20;99.90;;;;;;5052994;28;20053;-73
2021/12/11 10:25:50;;;;;;;29.30;16.42;;;3.10;99.90;;;;;;5069608;28;20047;-73
2021/12/11 10:28:19;;;;;;;29.67;15.68;;;3.30;99.90;;;;;;5067973;28;20077;-73
2021/12/11 10:30:55;;;;;;;28.77;15.82;;;3.10;99.90;;;;;;5069239;28;20092;-73
2021/12/11 10:33:25;;;;;;;;;;;3.20;99.90;;;;;;5014676;28;20061;-73
2021/12/11 10:35:56;;;;;;;26.75;15.55;;;3.40;99.90;;;;;;5050346;28;20039;-72
2021/12/11 10:38:22;;;;;;;28.65;16.63;;;3.60;99.90;;;;;;5031051;28;20049;-72
2021/12/11 10:40:52;;;;;;;27.15;15.50;;;3.80;99.90;;;;;;5017550;28;20081;-73
2021/12/11 10:43:23;;;;;;;26.85;15.35;;;3.80;99.90;;;;;;5017171;28;20049;-72
2021/12/11 10:45:50;;;;;;;27.25;15.38;;;4.00;99.90;;;;;;5046616;28;20057;-72
2021/12/11 10:48:21;;;;;;;27.17;15.43;;;4.10;99.90;;;;;;5051031;28;20058;-72
2021/12/11 10:50:59;;;;;;;29.48;15.80;;;4.20;99.90;;;;;;5050088;28;20045;-72
2021/12/11 10:53:27;;;;;;;29.13;15.32;;;4.40;99.90;;;;;;5015856;28;20050;-72
2021/12/11 10:55:55;;;;;;;30.52;17.25;;;4.10;99.90;;;;;;5049874;28;20049;-72
2021/12/11 10:58:28;;;;;;;32.13;16.60;;;4.10;99.90;;;;;;5016268;28;20457;-72
2021/12/11 11:01:02;;;;;;;31.55;16.17;;;3.90;99.90;;;;;;5033649;28;20046;-72
2021/12/11 11:03:31;;;;;;;25.98;15.05;;;3.80;99.90;;;;;;5047524;28;20143;-72
2021/12/11 11:05:57;;;;;;;26.88;16.00;;;3.60;99.90;;;;;;5049200;28;20049;-71
2021/12/11 11:08:23;;;;;;;28.33;16.52;;;3.60;99.90;;;;;;5035180;28;20049;-71
2021/12/11 11:10:56;;;;;;;34.38;18.45;;;2.90;99.90;;;;;;5033479;28;20140;-72
2021/12/11 11:13:23;;;;;;;33.78;17.95;;;2.70;99.90;;;;;;5037925;28;20054;-72
2021/12/11 11:15:50;;;;;;;32.97;17.13;;;2.70;99.90;;;;;;5067142;28;20084;-72
2021/12/11 11:18:18;;;;;;;33.35;17.88;;;2.70;99.90;;;;;;5069568;28;20116;-72
2021/12/11 11:20:50;;;;;;;30.23;18.30;;;2.50;99.90;;;;;;5066617;28;20080;-72
2021/12/11 11:23:16;;;;;;;31.50;18.40;;;2.50;99.90;;;;;;5029308;28;20506;-72
2021/12/11 11:25:46;;;;;;;30.75;17.00;;;2.50;99.90;;;;;;5055866;28;20058;-72
2021/12/11 11:28:15;;;;;;;36.45;18.05;;;2.70;99.90;;;;;;5027873;28;20053;-72
2021/12/11 11:30:52;;;;;;;32.80;18.23;;;2.60;99.90;;;;;;5035278;28;20042;-71
2021/12/11 11:33:20;;;;;;;35.47;18.85;;;2.60;99.90;;;;;;5066436;28;20088;-72
2021/12/11 11:35:48;;;;;;;35.42;17.90;;;3.50;99.90;;;;;;5036793;28;20030;-72
2021/12/11 11:38:24;;;;;;;38.40;19.67;;;2.90;99.90;;;;;;5068095;28;20042;-71
2021/12/11 11:40:55;;;;;;;37.78;19.05;;;2.50;99.90;;;;;;5068347;28;20050;-72
2021/12/11 11:43:22;;;;;;;38.25;18.80;;;2.50;99.90;;;;;;5070347;28;20053;-72
2021/12/11 11:45:52;;;;;;;34.78;18.58;;;2.60;99.90;;;;;;5035114;28;20533;-72
2021/12/11 11:48:27;;;;;;;38.47;18.77;;;2.60;99.90;;;;;;5049711;28;20092;-73
2021/12/11 11:50:57;;;;;;;34.88;19.30;;;2.60;99.90;;;;;;5015145;28;20077;-73
2021/12/11 11:53:24;;;;;;;35.65;18.80;;;3.80;99.90;;;;;;5016181;28;20052;-73
2021/12/11 11:55:57;;;;;;;43.40;21.08;;;2.60;99.90;;;;;;5032858;28;20050;-71
2021/12/11 11:58:25;;;;;;;39.50;19.45;;;2.60;99.90;;;;;;5014138;28;20129;-72
2021/12/11 12:00:57;;;;;;;39.90;20.48;;;2.70;99.90;;;;;;5051580;28;20057;-73
2021/12/11 12:03:26;;;;;;;39.00;20.00;;;2.70;99.90;;;;;;5037276;28;20114;-72
2021/12/11 12:05:59;;;;;;;39.40;19.77;;;3.40;99.90;;;;;;5039631;28;20089;-73
2021/12/11 12:08:25;;;;;;;38.78;18.42;;;2.80;99.90;;;;;;5037530;28;20079;-72
2021/12/11 12:10:53;;;;;;;42.35;20.02;;;3.00;99.90;;;;;;5051781;28;20076;-72
2021/12/11 12:13:24;;;;;;;46.70;20.50;;;2.90;99.90;;;;;;5081371;28;20042;-74
2021/12/11 12:15:54;;;;;;;37.53;17.63;;;2.90;99.90;;;;;;5018069;28;20054;-73
2021/12/11 12:18:22;;;;;;;37.53;19.52;;;3.00;99.90;;;;;;5053411;28;20054;-73
2021/12/11 12:20:49;;;;;;;43.17;22.27;;;3.00;99.90;;;;;;5069144;28;20053;-73
2021/12/11 12:23:19;;;;;;;41.42;19.98;;;3.10;99.90;;;;;;5038611;28;20057;-73
2021/12/11 12:25:46;;;;;;;39.35;20.65;;;3.10;99.90;;;;;;5038758;28;20054;-72
2021/12/11 12:28:12;;;;;;;43.50;20.88;;;3.10;99.90;;;;;;5036700;28;20079;-72
2021/12/11 12:30:43;;;;;;;40.58;21.48;;;4.30;99.90;;;;;;5056382;28;20334;-73
2021/12/11 12:33:11;;;;;;;42.90;20.70;;;3.20;99.90;;;;;;5036437;28;20059;-72
2021/12/11 12:35:38;;;;;;;40.33;20.27;;;3.20;99.90;;;;;;5038866;28;20079;-72
2021/12/11 12:38:08;;;;;;;41.70;18.17;;;3.20;99.90;;;;;;5037601;28;20045;-71
2021/12/11 12:41:00;;;;;;;38.08;19.05;;;3.30;99.90;;;;;;5055378;28;20417;-72
2021/12/11 12:46:10;;;;;;;36.90;17.50;;;3.70;99.90;;;;;;5071455;28;20055;-72
2021/12/11 12:48:36;;;;;;;36.58;17.35;;;3.60;99.90;;;;;;5038992;28;20509;-71
2021/12/11 12:51:05;;;;;;;36.33;17.45;;;3.60;99.90;;;;;;5035641;28;20054;-71
2021/12/11 12:53:35;;;;;;;40.55;20.13;;;3.60;99.90;;;;;;5037100;28;20103;-72
2021/12/11 12:56:17;;;;;;;33.17;16.70;;;3.70;99.90;;;;;;5038994;28;20107;-72
2021/12/11 12:58:52;;;;;;;38.22;19.88;;;3.70;99.90;;;;;;5033570;28;20040;-73
2021/12/11 13:01:55;;;;;;;36.28;17.90;;;3.70;99.90;;;;;;5070407;28;20049;-72
2021/12/11 13:04:29;;;;;;;38.05;19.25;;;3.70;99.90;;;;;;5038478;28;20046;-73
2021/12/11 13:06:57;;;;;;;37.47;19.27;;;3.70;99.90;;;;;;5035778;28;20398;-72
2021/12/11 13:09:34;;;;;;;31.33;18.40;;;3.80;99.90;;;;;;5039130;28;20041;-72
2021/12/11 13:12:11;;;;;;;36.22;18.35;;;4.10;99.90;;;;;;5035881;28;20409;-72